sensor_id;sensor_type;location;lat;lon;timestamp;pressure;altitude;pressure_sealevel;temperature;humidity
64792;BME280;51226;47.504;19.074;2023-04-01T00:02:33;98892.59;;;11.24;73.67
64792;BME280;51226;47.504;19.074;2023-04-01T00:05:36;98902.09;;;11.19;74.59
64792;BME280;51226;47.504;19.074;2023-04-01T00:08:39;98895.91;;;11.09;75.37
64792;BME280;51226;47.504;19.074;2023-04-01T00:11:43;98903.50;;;10.90;76.42
64792;BME280;51226;47.504;19.074;2023-04-01T00:14:47;98900.69;;;10.73;77.41
64792;BME280;51226;47.504;19.074;2023-04-01T00:17:50;98905.78;;;10.64;78.15
64792;BME280;51226;47.504;19.074;2023-04-01T00:20:53;98902.25;;;10.62;78.59
64792;BME280;51226;47.504;19.074;2023-04-01T00:23:56;98897.91;;;10.60;78.96
64792;BME280;51226;47.504;19.074;2023-04-01T00:26:59;98898.56;;;10.45;80.22
64792;BME280;51226;47.504;19.074;2023-04-01T00:30:03;98896.69;;;10.36;80.89
64792;BME280;51226;47.504;19.074;2023-04-01T00:33:06;98895.56;;;10.22;81.72
64792;BME280;51226;47.504;19.074;2023-04-01T00:36:15;98894.56;;;10.13;82.46
64792;BME280;51226;47.504;19.074;2023-04-01T00:39:22;98885.88;;;10.11;82.87
64792;BME280;51226;47.504;19.074;2023-04-01T00:42:25;98876.25;;;10.07;82.98
64792;BME280;51226;47.504;19.074;2023-04-01T00:48:36;98881.75;;;10.27;80.97
64792;BME280;51226;47.504;19.074;2023-04-01T00:51:41;98882.47;;;10.17;80.83
64792;BME280;51226;47.504;19.074;2023-04-01T00:54:47;98884.09;;;10.10;81.53
64792;BME280;51226;47.504;19.074;2023-04-01T00:57:51;98879.00;;;10.16;81.59
64792;BME280;51226;47.504;19.074;2023-04-01T01:00:57;98880.03;;;10.26;80.90
64792;BME280;51226;47.504;19.074;2023-04-01T01:04:02;98874.97;;;10.35;79.52
64792;BME280;51226;47.504;19.074;2023-04-01T01:07:24;98867.25;;;10.42;79.45
64792;BME280;51226;47.504;19.074;2023-04-01T01:10:38;98868.31;;;10.56;78.19
64792;BME280;51226;47.504;19.074;2023-04-01T01:13:53;98866.66;;;10.63;77.61
64792;BME280;51226;47.504;19.074;2023-04-01T01:17:16;98865.19;;;10.85;75.34
64792;BME280;51226;47.504;19.074;2023-04-01T01:20:47;98870.34;;;10.80;76.03
64792;BME280;51226;47.504;19.074;2023-04-01T01:24:05;98873.09;;;10.89;74.93
64792;BME280;51226;47.504;19.074;2023-04-01T01:27:11;98870.78;;;11.17;71.31
64792;BME280;51226;47.504;19.074;2023-04-01T01:31:00;98862.88;;;11.09;71.73
64792;BME280;51226;47.504;19.074;2023-04-01T01:34:14;98861.84;;;10.97;73.34
64792;BME280;51226;47.504;19.074;2023-04-01T01:37:25;98861.84;;;10.97;74.48
64792;BME280;51226;47.504;19.074;2023-04-01T01:40:31;98858.59;;;11.16;72.77
64792;BME280;51226;47.504;19.074;2023-04-01T01:43:40;98849.78;;;11.06;73.42
64792;BME280;51226;47.504;19.074;2023-04-01T01:46:47;98854.09;;;11.03;74.19
64792;BME280;51226;47.504;19.074;2023-04-01T01:49:51;98854.19;;;11.12;72.90
64792;BME280;51226;47.504;19.074;2023-04-01T01:53:06;98857.00;;;11.30;71.96
64792;BME280;51226;47.504;19.074;2023-04-01T01:56:11;98856.19;;;11.35;70.50
64792;BME280;51226;47.504;19.074;2023-04-01T01:59:20;98854.38;;;11.30;70.81
64792;BME280;51226;47.504;19.074;2023-04-01T02:02:24;98860.41;;;11.23;71.94
64792;BME280;51226;47.504;19.074;2023-04-01T02:05:29;98858.69;;;11.27;70.50
64792;BME280;51226;47.504;19.074;2023-04-01T02:08:38;98847.38;;;11.25;70.78
64792;BME280;51226;47.504;19.074;2023-04-01T02:11:49;98858.72;;;11.28;70.27
64792;BME280;51226;47.504;19.074;2023-04-01T02:15:04;98844.00;;;11.37;69.16
64792;BME280;51226;47.504;19.074;2023-04-01T02:18:10;98849.16;;;11.30;69.66
64792;BME280;51226;47.504;19.074;2023-04-01T02:21:15;98847.53;;;11.42;68.72
64792;BME280;51226;47.504;19.074;2023-04-01T02:24:19;98847.50;;;11.37;69.02
64792;BME280;51226;47.504;19.074;2023-04-01T02:27:25;98844.03;;;11.38;68.97
64792;BME280;51226;47.504;19.074;2023-04-01T02:30:29;98835.31;;;11.35;68.98
64792;BME280;51226;47.504;19.074;2023-04-01T02:33:34;98845.75;;;11.35;69.14
64792;BME280;51226;47.504;19.074;2023-04-01T02:36:38;98838.81;;;11.38;68.79
64792;BME280;51226;47.504;19.074;2023-04-01T02:39:41;98827.50;;;11.41;68.70
64792;BME280;51226;47.504;19.074;2023-04-01T02:42:45;98833.63;;;11.43;68.28
64792;BME280;51226;47.504;19.074;2023-04-01T02:45:52;98831.81;;;11.37;68.73
64792;BME280;51226;47.504;19.074;2023-04-01T02:48:54;98827.47;;;11.35;68.43
64792;BME280;51226;47.504;19.074;2023-04-01T02:51:59;98836.06;;;11.27;68.81
64792;BME280;51226;47.504;19.074;2023-04-01T02:55:02;98836.06;;;11.27;68.80
64792;BME280;51226;47.504;19.074;2023-04-01T02:58:05;98837.88;;;11.31;68.37
64792;BME280;51226;47.504;19.074;2023-04-01T03:01:09;98837.81;;;11.27;68.47
64792;BME280;51226;47.504;19.074;2023-04-01T03:04:12;98838.69;;;11.27;68.22
64792;BME280;51226;47.504;19.074;2023-04-01T03:07:14;98834.34;;;11.25;68.26
64792;BME280;51226;47.504;19.074;2023-04-01T03:10:17;98835.97;;;11.17;69.14
64792;BME280;51226;47.504;19.074;2023-04-01T03:13:20;98839.50;;;11.20;68.74
64792;BME280;51226;47.504;19.074;2023-04-01T03:16:23;98835.94;;;11.12;69.50
64792;BME280;51226;47.504;19.074;2023-04-01T03:19:26;98840.28;;;11.11;69.10
64792;BME280;51226;47.504;19.074;2023-04-01T03:22:30;98827.28;;;11.15;68.83
64792;BME280;51226;47.504;19.074;2023-04-01T03:25:33;98828.97;;;11.11;68.86
64792;BME280;51226;47.504;19.074;2023-04-01T03:28:37;98831.44;;;11.00;69.39
64792;BME280;51226;47.504;19.074;2023-04-01T03:31:39;98835.00;;;11.05;68.86
64792;BME280;51226;47.504;19.074;2023-04-01T03:34:43;98844.53;;;11.03;69.49
64792;BME280;51226;47.504;19.074;2023-04-01T03:37:45;98846.16;;;10.93;69.94
64792;BME280;51226;47.504;19.074;2023-04-01T03:40:49;98853.94;;;10.90;70.20
64792;BME280;51226;47.504;19.074;2023-04-01T03:43:53;98847.25;;;11.14;68.20
64792;BME280;51226;47.504;19.074;2023-04-01T03:46:56;98855.72;;;10.91;70.04
64792;BME280;51226;47.504;19.074;2023-04-01T03:49:59;98866.22;;;10.99;69.34
64792;BME280;51226;47.504;19.074;2023-04-01T03:53:02;98865.25;;;10.92;69.79
64792;BME280;51226;47.504;19.074;2023-04-01T03:56:06;98874.84;;;10.93;69.85
64792;BME280;51226;47.504;19.074;2023-04-01T03:59:10;98873.13;;;10.96;69.44
64792;BME280;51226;47.504;19.074;2023-04-01T04:02:12;98867.00;;;10.90;69.90
64792;BME280;51226;47.504;19.074;2023-04-01T04:05:16;98868.72;;;10.90;70.26
64792;BME280;51226;47.504;19.074;2023-04-01T04:08:19;98876.44;;;10.82;70.95
64792;BME280;51226;47.504;19.074;2023-04-01T04:11:24;98874.00;;;10.94;69.44
64792;BME280;51226;47.504;19.074;2023-04-01T04:14:28;98867.72;;;10.79;70.56
64792;BME280;51226;47.504;19.074;2023-04-01T04:17:31;98872.03;;;10.75;70.78
64792;BME280;51226;47.504;19.074;2023-04-01T04:20:34;98874.53;;;10.69;71.48
64792;BME280;51226;47.504;19.074;2023-04-01T04:23:37;98872.84;;;10.72;70.79
64792;BME280;51226;47.504;19.074;2023-04-01T04:26:40;98871.25;;;10.84;70.29
64792;BME280;51226;47.504;19.074;2023-04-01T04:29:43;98868.56;;;10.76;70.69
64792;BME280;51226;47.504;19.074;2023-04-01T04:32:46;98875.66;;;10.86;69.90
64792;BME280;51226;47.504;19.074;2023-04-01T04:35:49;98871.22;;;10.82;70.00
64792;BME280;51226;47.504;19.074;2023-04-01T04:38:52;98864.25;;;10.78;70.18
64792;BME280;51226;47.504;19.074;2023-04-01T04:41:56;98858.97;;;10.73;70.42
64792;BME280;51226;47.504;19.074;2023-04-01T04:44:58;98854.59;;;10.71;70.53
64792;BME280;51226;47.504;19.074;2023-04-01T04:48:02;98865.03;;;10.71;70.76
64792;BME280;51226;47.504;19.074;2023-04-01T04:51:05;98861.56;;;10.73;70.68
64792;BME280;51226;47.504;19.074;2023-04-01T04:54:08;98862.56;;;10.83;70.00
64792;BME280;51226;47.504;19.074;2023-04-01T04:57:14;98859.03;;;10.78;70.54
64792;BME280;51226;47.504;19.074;2023-04-01T05:00:17;98856.44;;;10.80;70.46
64792;BME280;51226;47.504;19.074;2023-04-01T05:03:21;98859.13;;;10.87;69.62
64792;BME280;51226;47.504;19.074;2023-04-01T05:06:24;98871.28;;;10.87;70.12
64792;BME280;51226;47.504;19.074;2023-04-01T05:09:27;98860.94;;;10.91;69.48
64792;BME280;51226;47.504;19.074;2023-04-01T05:12:31;98862.72;;;10.97;69.17
64792;BME280;51226;47.504;19.074;2023-04-01T05:15:36;98864.50;;;11.00;68.55
64792;BME280;51226;47.504;19.074;2023-04-01T05:18:40;98862.78;;;11.03;68.17
64792;BME280;51226;47.504;19.074;2023-04-01T05:21:42;98858.56;;;11.13;67.60
64792;BME280;51226;47.504;19.074;2023-04-01T05:24:45;98861.22;;;11.16;67.67
64792;BME280;51226;47.504;19.074;2023-04-01T05:27:48;98865.56;;;11.17;68.06
64792;BME280;51226;47.504;19.074;2023-04-01T05:30:51;98872.63;;;11.27;66.50
64792;BME280;51226;47.504;19.074;2023-04-01T05:33:54;98878.81;;;11.37;65.61
64792;BME280;51226;47.504;19.074;2023-04-01T05:36:57;98876.38;;;11.54;64.62
64792;BME280;51226;47.504;19.074;2023-04-01T05:40:00;98877.34;;;11.65;63.87
64792;BME280;51226;47.504;19.074;2023-04-01T05:43:04;98871.31;;;11.74;63.16
64792;BME280;51226;47.504;19.074;2023-04-01T05:46:07;98867.81;;;11.71;65.72
64792;BME280;51226;47.504;19.074;2023-04-01T05:49:10;98869.72;;;11.89;62.63
64792;BME280;51226;47.504;19.074;2023-04-01T05:52:13;98880.28;;;11.96;62.04
64792;BME280;51226;47.504;19.074;2023-04-01T05:55:17;98868.16;;;12.04;61.58
64792;BME280;51226;47.504;19.074;2023-04-01T05:58:20;98870.78;;;12.11;62.08
64792;BME280;51226;47.504;19.074;2023-04-01T06:01:23;98863.03;;;12.23;62.50
64792;BME280;51226;47.504;19.074;2023-04-01T06:04:28;98871.84;;;12.42;59.56
64792;BME280;51226;47.504;19.074;2023-04-01T06:07:35;98866.69;;;12.53;59.35
64792;BME280;51226;47.504;19.074;2023-04-01T06:14:37;98872.84;;;12.58;59.13
64792;BME280;51226;47.504;19.074;2023-04-01T06:17:24;98871.13;;;12.71;58.47
64792;BME280;51226;47.504;19.074;2023-04-01T06:24:00;98872.03;;;12.71;60.98
64792;BME280;51226;47.504;19.074;2023-04-01T06:27:34;98866.81;;;12.79;59.03
64792;BME280;51226;47.504;19.074;2023-04-01T06:44:05;98887.09;;;13.34;57.96
64792;BME280;51226;47.504;19.074;2023-04-01T06:47:26;98884.53;;;13.56;55.19
64792;BME280;51226;47.504;19.074;2023-04-01T06:54:13;98882.81;;;13.76;55.43
64792;BME280;51226;47.504;19.074;2023-04-01T06:57:24;98888.06;;;13.92;54.97
64792;BME280;51226;47.504;19.074;2023-04-01T07:00:36;98886.34;;;13.98;54.77
64792;BME280;51226;47.504;19.074;2023-04-01T07:03:50;98888.03;;;14.13;54.14
64792;BME280;51226;47.504;19.074;2023-04-01T07:07:05;98891.53;;;14.34;53.28
64792;BME280;51226;47.504;19.074;2023-04-01T07:10:25;98895.00;;;14.51;55.54
64792;BME280;51226;47.504;19.074;2023-04-01T07:13:54;98887.13;;;14.65;53.01
64792;BME280;51226;47.504;19.074;2023-04-01T07:17:04;98889.72;;;14.80;52.41
64792;BME280;51226;47.504;19.074;2023-04-01T07:23:23;98886.97;;;15.08;52.75
64792;BME280;51226;47.504;19.074;2023-04-01T07:26:27;98879.87;;;15.29;50.59
64792;BME280;51226;47.504;19.074;2023-04-01T07:29:32;98883.22;;;15.54;51.48
64792;BME280;51226;47.504;19.074;2023-04-01T07:36:05;98881.91;;;16.14;48.70
64792;BME280;51226;47.504;19.074;2023-04-01T07:39:25;98883.47;;;16.33;48.76
64792;BME280;51226;47.504;19.074;2023-04-01T07:42:48;98881.37;;;16.69;47.24
64792;BME280;51226;47.504;19.074;2023-04-01T07:46:18;98888.72;;;17.17;46.76
64792;BME280;51226;47.504;19.074;2023-04-01T07:49:35;98883.22;;;17.32;44.91
64792;BME280;51226;47.504;19.074;2023-04-01T07:53:25;98889.06;;;17.56;44.61
64792;BME280;51226;47.504;19.074;2023-04-01T08:23:36;98891.94;;;19.79;39.33
64792;BME280;51226;47.504;19.074;2023-04-01T08:26:45;98890.38;;;20.08;38.51
64792;BME280;51226;47.504;19.074;2023-04-01T08:29:58;98881.28;;;19.82;38.67
64792;BME280;51226;47.504;19.074;2023-04-01T08:33:13;98886.44;;;19.88;38.62
64792;BME280;51226;47.504;19.074;2023-04-01T08:36:51;98890.28;;;19.73;38.42
64792;BME280;51226;47.504;19.074;2023-04-01T08:40:02;98885.91;;;19.33;39.30
64792;BME280;51226;47.504;19.074;2023-04-01T09:00:32;98884.31;;;20.03;37.73
64792;BME280;51226;47.504;19.074;2023-04-01T09:03:51;98888.09;;;20.28;38.03
64792;BME280;51226;47.504;19.074;2023-04-01T09:13:55;98887.47;;;20.18;37.96
64792;BME280;51226;47.504;19.074;2023-04-01T09:20:30;98887.94;;;20.69;37.88
64792;BME280;51226;47.504;19.074;2023-04-01T09:23:51;98878.84;;;20.78;36.60
64792;BME280;51226;47.504;19.074;2023-04-01T09:27:05;98885.25;;;20.70;37.47
64792;BME280;51226;47.504;19.074;2023-04-01T09:40:57;98880.44;;;19.41;39.62
64792;BME280;51226;47.504;19.074;2023-04-01T09:44:03;98890.66;;;18.70;40.68
64792;BME280;51226;47.504;19.074;2023-04-01T09:54:20;98898.41;;;17.13;44.44
64792;BME280;51226;47.504;19.074;2023-04-01T09:57:37;98897.88;;;16.87;46.84
64792;BME280;51226;47.504;19.074;2023-04-01T10:20:45;98910.81;;;16.18;49.51
64792;BME280;51226;47.504;19.074;2023-04-01T10:24:05;98908.94;;;16.31;48.26
64792;BME280;51226;47.504;19.074;2023-04-01T11:02:52;98899.69;;;17.50;44.51
64792;BME280;51226;47.504;19.074;2023-04-01T11:40:20;98883.69;;;18.68;40.98
64792;BME280;51226;47.504;19.074;2023-04-01T11:51:11;98909.78;;;17.18;43.95
64792;BME280;51226;47.504;19.074;2023-04-01T12:01:46;98904.56;;;16.27;45.38
64792;BME280;51226;47.504;19.074;2023-04-01T12:05:13;98907.47;;;15.96;45.90
64792;BME280;51226;47.504;19.074;2023-04-01T12:11:52;98893.66;;;15.63;47.28
64792;BME280;51226;47.504;19.074;2023-04-01T12:15:21;98895.37;;;15.70;47.07
64792;BME280;51226;47.504;19.074;2023-04-01T12:31:42;98904.94;;;16.80;44.34
64792;BME280;51226;47.504;19.074;2023-04-01T12:52:10;98897.50;;;17.17;45.31
64792;BME280;51226;47.504;19.074;2023-04-01T12:55:56;98901.59;;;17.40;44.01
64792;BME280;51226;47.504;19.074;2023-04-01T13:09:39;98879.72;;;18.44;40.77
64792;BME280;51226;47.504;19.074;2023-04-01T13:16:33;98872.25;;;18.67;40.34
64792;BME280;51226;47.504;19.074;2023-04-01T13:33:28;98880.87;;;20.35;39.27
64792;BME280;51226;47.504;19.074;2023-04-01T13:43:25;98882.56;;;20.72;36.17
64792;BME280;51226;47.504;19.074;2023-04-01T13:46:42;98883.59;;;20.98;34.25
64792;BME280;51226;47.504;19.074;2023-04-01T14:07:06;98905.94;;;20.54;38.04
64792;BME280;51226;47.504;19.074;2023-04-01T14:10:23;98899.84;;;20.51;36.37
64792;BME280;51226;47.504;19.074;2023-04-01T14:13:37;98895.16;;;20.28;37.25
64792;BME280;51226;47.504;19.074;2023-04-01T14:20:02;98892.06;;;19.34;41.05
64792;BME280;51226;47.504;19.074;2023-04-01T14:27:09;98889.16;;;18.57;39.15
64792;BME280;51226;47.504;19.074;2023-04-01T14:30:31;98901.91;;;18.33;43.53
64792;BME280;51226;47.504;19.074;2023-04-01T14:33:43;98894.44;;;18.07;40.16
64792;BME280;51226;47.504;19.074;2023-04-01T14:43:47;98894.16;;;17.67;44.94
64792;BME280;51226;47.504;19.074;2023-04-01T14:47:17;98887.00;;;17.76;43.59
64792;BME280;51226;47.504;19.074;2023-04-01T14:50:27;98886.94;;;17.81;41.71
64792;BME280;51226;47.504;19.074;2023-04-01T14:53:36;98883.63;;;17.67;42.49
64792;BME280;51226;47.504;19.074;2023-04-01T14:56:44;98888.13;;;17.58;45.06
64792;BME280;51226;47.504;19.074;2023-04-01T15:06:56;98891.47;;;17.71;40.80
64792;BME280;51226;47.504;19.074;2023-04-01T15:10:31;98888.81;;;17.73;41.31
64792;BME280;51226;47.504;19.074;2023-04-01T15:24:24;98883.38;;;17.23;46.17
64792;BME280;51226;47.504;19.074;2023-04-01T15:30:56;98900.34;;;16.99;44.74
64792;BME280;51226;47.504;19.074;2023-04-01T15:43:49;98902.31;;;16.78;47.61
64792;BME280;51226;47.504;19.074;2023-04-01T15:46:55;98900.50;;;16.87;43.96
64792;BME280;51226;47.504;19.074;2023-04-01T15:56:52;98902.50;;;16.63;43.72
64792;BME280;51226;47.504;19.074;2023-04-01T16:00:31;98907.91;;;16.47;45.50
64792;BME280;51226;47.504;19.074;2023-04-01T16:17:38;98920.25;;;16.42;40.90
64792;BME280;51226;47.504;19.074;2023-04-01T16:20:55;98925.56;;;16.36;40.54
64792;BME280;51226;47.504;19.074;2023-04-01T16:24:12;98923.09;;;16.19;42.07
64792;BME280;51226;47.504;19.074;2023-04-01T16:34:08;98940.72;;;16.03;41.72
64792;BME280;51226;47.504;19.074;2023-04-01T16:37:19;98940.75;;;15.99;44.43
64792;BME280;51226;47.504;19.074;2023-04-01T16:40:42;98939.00;;;16.01;41.58
64792;BME280;51226;47.504;19.074;2023-04-01T16:43:51;98942.50;;;16.03;41.49
64792;BME280;51226;47.504;19.074;2023-04-01T16:47:11;98938.25;;;15.82;43.80
64792;BME280;51226;47.504;19.074;2023-04-01T16:50:23;98949.69;;;15.78;42.80
64792;BME280;51226;47.504;19.074;2023-04-01T16:56:55;98941.94;;;15.47;43.91
64792;BME280;51226;47.504;19.074;2023-04-01T17:00:23;98952.44;;;15.50;43.22
64792;BME280;51226;47.504;19.074;2023-04-01T17:03:40;98955.13;;;15.37;43.25
64792;BME280;51226;47.504;19.074;2023-04-01T17:06:49;98960.41;;;15.27;43.90
64792;BME280;51226;47.504;19.074;2023-04-01T17:13:46;98953.44;;;15.19;44.92
64792;BME280;51226;47.504;19.074;2023-04-01T17:20:46;98978.03;;;14.95;45.05
64792;BME280;51226;47.504;19.074;2023-04-01T17:24:02;98973.69;;;14.80;47.94
64792;BME280;51226;47.504;19.074;2023-04-01T17:31:18;98976.34;;;14.59;48.45
64792;BME280;51226;47.504;19.074;2023-04-01T17:57:54;98999.03;;;14.09;52.40
64792;BME280;51226;47.504;19.074;2023-04-01T18:08:15;99018.25;;;13.94;51.83
64792;BME280;51226;47.504;19.074;2023-04-01T18:21:48;99032.16;;;13.71;52.93
64792;BME280;51226;47.504;19.074;2023-04-01T18:31:39;99049.63;;;13.65;53.45
64792;BME280;51226;47.504;19.074;2023-04-01T18:38:00;99049.59;;;13.59;54.48
64792;BME280;51226;47.504;19.074;2023-04-01T18:44:50;99060.91;;;13.56;53.10
64792;BME280;51226;47.504;19.074;2023-04-01T18:48:17;99056.53;;;13.49;53.51
64792;BME280;51226;47.504;19.074;2023-04-01T18:51:49;99067.84;;;13.43;53.79
64792;BME280;51226;47.504;19.074;2023-04-01T19:04:44;99076.47;;;13.30;54.04
64792;BME280;51226;47.504;19.074;2023-04-01T19:07:53;99079.94;;;13.26;55.21
64792;BME280;51226;47.504;19.074;2023-04-01T19:14:16;99078.19;;;13.25;53.82
64792;BME280;51226;47.504;19.074;2023-04-01T19:20:51;99079.00;;;13.18;54.16
64792;BME280;51226;47.504;19.074;2023-04-01T19:27:34;99076.38;;;13.11;54.08
64792;BME280;51226;47.504;19.074;2023-04-01T19:31:00;99081.59;;;13.11;54.11
64792;BME280;51226;47.504;19.074;2023-04-01T19:37:40;99085.03;;;13.07;54.51
64792;BME280;51226;47.504;19.074;2023-04-01T19:40:51;99081.56;;;13.08;54.31
64792;BME280;51226;47.504;19.074;2023-04-01T19:50:27;99095.44;;;12.93;55.47
64792;BME280;51226;47.504;19.074;2023-04-01T20:00:34;99103.22;;;12.86;55.41
64792;BME280;51226;47.504;19.074;2023-04-01T20:03:58;99096.22;;;12.82;55.55
64792;BME280;51226;47.504;19.074;2023-04-01T20:14:15;99106.56;;;12.71;55.70
64792;BME280;51226;47.504;19.074;2023-04-01T20:20:39;99098.72;;;12.71;55.04
64792;BME280;51226;47.504;19.074;2023-04-01T20:23:49;99103.03;;;12.64;56.85
64792;BME280;51226;47.504;19.074;2023-04-01T20:27:21;99098.66;;;12.60;56.43
64792;BME280;51226;47.504;19.074;2023-04-01T20:34:13;99099.50;;;12.60;57.38
64792;BME280;51226;47.504;19.074;2023-04-01T20:37:32;99100.38;;;12.61;57.25
64792;BME280;51226;47.504;19.074;2023-04-01T20:40:49;99103.91;;;12.63;57.62
64792;BME280;51226;47.504;19.074;2023-04-01T20:44:03;99104.81;;;12.67;57.53
64792;BME280;51226;47.504;19.074;2023-04-01T20:47:40;99106.56;;;12.71;57.12
64792;BME280;51226;47.504;19.074;2023-04-01T20:50:50;99109.16;;;12.68;57.63
64792;BME280;51226;47.504;19.074;2023-04-01T20:54:53;99106.53;;;12.65;57.76
64792;BME280;51226;47.504;19.074;2023-04-01T20:57:40;99121.34;;;12.64;57.57
64792;BME280;51226;47.504;19.074;2023-04-01T21:04:24;99136.06;;;12.51;57.79
64792;BME280;51226;47.504;19.074;2023-04-01T21:07:34;99135.09;;;12.46;58.94
64792;BME280;51226;47.504;19.074;2023-04-01T21:10:43;99141.16;;;12.40;58.73
64792;BME280;51226;47.504;19.074;2023-04-01T21:17:02;99132.41;;;12.37;59.60
64792;BME280;51226;47.504;19.074;2023-04-01T21:44:02;99150.62;;;12.31;57.72
64792;BME280;51226;47.504;19.074;2023-04-01T21:47:44;99161.06;;;12.29;57.14
64792;BME280;51226;47.504;19.074;2023-04-01T22:07:26;99164.44;;;12.17;55.85
64792;BME280;51226;47.504;19.074;2023-04-01T22:10:40;99160.09;;;12.16;56.17
64792;BME280;51226;47.504;19.074;2023-04-01T22:14:04;99167.75;;;12.04;56.87
64792;BME280;51226;47.504;19.074;2023-04-01T22:20:48;99177.41;;;12.08;56.82
64792;BME280;51226;47.504;19.074;2023-04-01T22:27:39;99172.91;;;11.99;57.22
64792;BME280;51226;47.504;19.074;2023-04-01T22:30:54;99176.25;;;11.91;57.70
64792;BME280;51226;47.504;19.074;2023-04-01T22:44:38;99185.13;;;12.00;57.73
64792;BME280;51226;47.504;19.074;2023-04-01T22:51:05;99198.84;;;11.85;58.78
64792;BME280;51226;47.504;19.074;2023-04-01T22:57:35;99203.16;;;11.82;59.01
64792;BME280;51226;47.504;19.074;2023-04-01T23:00:43;99202.22;;;11.77;59.23
64792;BME280;51226;47.504;19.074;2023-04-01T23:03:49;99210.94;;;11.79;59.18
64792;BME280;51226;47.504;19.074;2023-04-01T23:06:57;99212.78;;;11.84;59.19
64792;BME280;51226;47.504;19.074;2023-04-01T23:10:05;99214.59;;;11.90;59.29
64792;BME280;51226;47.504;19.074;2023-04-01T23:13:20;99215.56;;;11.95;58.97
64792;BME280;51226;47.504;19.074;2023-04-01T23:16:32;99218.84;;;11.83;59.57
64792;BME280;51226;47.504;19.074;2023-04-01T23:19:48;99223.13;;;11.78;59.57
64792;BME280;51226;47.504;19.074;2023-04-01T23:29:40;99225.56;;;11.67;60.08
64792;BME280;51226;47.504;19.074;2023-04-01T23:32:45;99228.94;;;11.59;60.27
64792;BME280;51226;47.504;19.074;2023-04-01T23:42:41;99226.28;;;11.57;60.59
64792;BME280;51226;47.504;19.074;2023-04-01T23:45:44;99221.94;;;11.55;60.55
64792;BME280;51226;47.504;19.074;2023-04-01T23:48:47;99226.28;;;11.57;60.49
64792;BME280;51226;47.504;19.074;2023-04-01T23:51:58;99242.81;;;11.55;60.27
64792;BME280;51226;47.504;19.074;2023-04-01T23:58:23;99250.31;;;11.35;61.53
